Southern Star — WDG9984 — position and weather

sailwx.info

Track history (hours):
 
Tides and Currents Weather Stations Pressure Air Temp Water Temp Dewpoint Dewpoint Depression Visibility Wind Speed Wind Dir Waves Ship Positions

Southern Star

Owner: Southern Star, LLC, Chesapeake, VA. More information available from US FCC via Universal Licensing System and Coast Guard Vessel Documentation Center.

Last reported at 2017-Oct-18 18:50 UTC. Time now 2017-Oct-18 23:51 UTC.
Position N 36°57' W 076°20'.

Length 13 m; draft 3.5 m.

Type: Tug. MMSI: 367593210.

Date/timePositionNaut miles runAvg speedWind from/ knotsBaromVisibWave heightAir tempDewpointWater temp
2017-Oct-18 18:50N 36°57' W 076°20'3 7.5
2017-Oct-18 18:26N 36°54' W 076°20'3 6.9
2017-Oct-18 18:00N 36°51' W 076°19'3 6.7
2017-Oct-18 17:30N 36°48' W 076°17'0 0.1
2017-Oct-18 17:00N 36°48' W 076°17'0 0.1
2017-Oct-18 16:30N 36°48' W 076°17'0 0.8
2017-Oct-18 15:59N 36°48' W 076°17'0 0.0
2017-Oct-18 15:26N 36°48' W 076°17'0 0.0
2017-Oct-18 15:00N 36°48' W 076°17'0 0.0
2017-Oct-18 14:00N 36°48' W 076°17'0 0.0
2017-Oct-18 13:29N 36°48' W 076°17'2 3.2
2017-Oct-18 12:52N 36°50' W 076°17'1 1.5
2017-Oct-18 12:28N 36°50' W 076°16'0 0.3
2017-Oct-18 11:59N 36°50' W 076°16'1 3.0
2017-Oct-18 11:30N 36°49' W 076°17'1 1.1
2017-Oct-18 10:59N 36°48' W 076°17'0 0.0
2017-Oct-17 23:08N 36°48' W 076°17'0 0.1
2017-Oct-17 22:55N 36°48' W 076°17'0 0.0
2017-Oct-17 22:25N 36°48' W 076°17'0 0.9
2017-Oct-17 21:57N 36°48' W 076°17'0 0.2
2017-Oct-17 20:03N 36°48' W 076°17'0 0.0
2017-Oct-17 19:59N 36°48' W 076°17'0 0.0
2017-Oct-17 19:24N 36°48' W 076°17'0 0.0
2017-Oct-17 18:45N 36°48' W 076°17'0 0.0
2017-Oct-17 17:44N 36°48' W 076°17'0 0.0
2017-Oct-17 17:28N 36°48' W 076°17'0 0.0
2017-Oct-17 16:36N 36°48' W 076°17'0 0.0
2017-Oct-17 16:25N 36°48' W 076°17'2 3.1
2017-Oct-17 15:46N 36°50' W 076°17'0 0.5
2017-Oct-17 15:04N 36°50' W 076°17'2 0.8
2017-Oct-17 12:23N 36°52' W 076°19'2 1.8
2017-Oct-17 11:03N 36°50' W 076°16'2 4.8
2017-Oct-17 10:43N 36°49' W 076°17'1 1.5
2017-Oct-17 10:20N 36°48' W 076°17'  
2017-Oct-12 19:20N 36°48' W 076°17'1 3.1
2017-Oct-12 19:01N 36°49' W 076°18'4 7.5
2017-Oct-12 18:29N 36°52' W 076°21'0 1.0
2017-Oct-12 17:59N 36°53' W 076°20'1 2.8
2017-Oct-12 17:28N 36°51' W 076°19'2 4.7
2017-Oct-12 17:01N 36°50' W 076°17'0 0.2
2017-Oct-12 16:31N 36°50' W 076°17'0 0.1
2017-Oct-12 16:01N 36°50' W 076°17'0 0.1
2017-Oct-12 15:31N 36°50' W 076°17'0 0.6
2017-Oct-12 15:01N 36°50' W 076°17'3 5.5
2017-Oct-12 14:30N 36°52' W 076°20'1 1.5
2017-Oct-12 14:00N 36°52' W 076°19'3 6.0
2017-Oct-12 13:30N 36°49' W 076°18'1 2.3
2017-Oct-12 13:01N 36°48' W 076°18'0 0.9
2017-Oct-12 12:31N 36°48' W 076°17'0 0.0
2017-Oct-12 12:01N 36°48' W 076°17'0 0.0
2017-Oct-12 11:31N 36°48' W 076°17'0 0.0
2017-Oct-12 11:01N 36°48' W 076°17'0 0.0
2017-Oct-12 10:31N 36°48' W 076°17'0 0.0
2017-Oct-12 10:01N 36°48' W 076°17'0 0.0
2017-Oct-12 09:30N 36°48' W 076°17'2 3.3
2017-Oct-12 08:54N 36°50' W 076°17'1 1.6
2017-Oct-12 08:30N 36°50' W 076°16'0 0.6
2017-Oct-12 08:00N 36°50' W 076°16'3 5.0
2017-Oct-12 07:29N 36°52' W 076°19'18 4.7
2017-Oct-12 03:43N 36°55' W 075°57'3 6.9
2017-Oct-12 03:15N 36°52' W 075°56'3 0.1
2017-Oct-11 00:00N 36°54' W 075°58'3 6.8
2017-Oct-10 23:31N 36°57' W 076°01'3 6.8
2017-Oct-10 23:00N 36°58' W 076°05'13 5.4
2017-Oct-10 20:39N 36°55' W 076°20'1 6.2
2017-Oct-10 20:25N 36°54' W 076°20'3 5.6
2017-Oct-10 19:52N 36°51' W 076°18'2 5.0
2017-Oct-10 19:27N 36°50' W 076°16'0 0.0
2017-Oct-10 19:01N 36°50' W 076°16'0 0.8
2017-Oct-10 18:29N 36°50' W 076°17'2 3.9
2017-Oct-10 17:59N 36°48' W 076°17'0 0.0
2017-Oct-10 17:29N 36°48' W 076°17'0 0.0
2017-Oct-10 17:00N 36°48' W 076°17'0 0.0
2017-Oct-10 16:30N 36°48' W 076°17'0 0.0
2017-Oct-10 15:59N 36°48' W 076°17'0 0.0
2017-Oct-10 15:14N 36°48' W 076°17'0 0.0
2017-Oct-10 14:59N 36°48' W 076°17'8 3.3
2017-Oct-10 12:25N 36°57' W 076°20'2 4.1
2017-Oct-10 11:59N 36°55' W 076°20'5 7.3
2017-Oct-10 11:19N 36°51' W 076°18'2 2.0
2017-Oct-10 10:14N 36°50' W 076°15'0 0.1
2017-Oct-10 09:38N 36°50' W 076°15'0 0.5
2017-Oct-10 09:24N 36°50' W 076°15'2 3.7
2017-Oct-10 08:52N 36°51' W 076°17'2 5.5
2017-Oct-10 08:30N 36°48' W 076°17'0 0.0
2017-Oct-09 06:16N 36°48' W 076°17'0 0.0
2017-Oct-09 04:37N 36°48' W 076°17'0 0.0
2017-Oct-09 04:29N 36°48' W 076°17'0 0.0
2017-Oct-09 03:59N 36°48' W 076°17'0 0.0
2017-Oct-09 03:30N 36°48' W 076°17'0 0.0
2017-Oct-09 02:59N 36°48' W 076°17'0 0.0
2017-Oct-09 02:30N 36°48' W 076°17'0 0.0
2017-Oct-09 02:00N 36°48' W 076°17'0 0.0
2017-Oct-09 01:30N 36°48' W 076°17'0 0.0
2017-Oct-09 01:00N 36°48' W 076°17'0 0.0
2017-Oct-09 00:30N 36°48' W 076°17'0 0.0
2017-Oct-09 00:00N 36°48' W 076°17'0 0.0
2017-Oct-08 23:29N 36°48' W 076°17'0 0.0
2017-Oct-08 23:00N 36°48' W 076°17'0 0.0
2017-Oct-08 22:30N 36°48' W 076°17'0 0.0
2017-Oct-08 22:00N 36°48' W 076°17'0 0.0
2017-Oct-08 21:30N 36°48' W 076°17'0 0.0
2017-Oct-08 21:00N 36°48' W 076°17'0 0.0
2017-Oct-08 20:27N 36°48' W 076°17'0 0.0
2017-Oct-08 19:59N 36°48' W 076°17'0 0.0
2017-Oct-08 19:30N 36°48' W 076°17'0 0.0
2017-Oct-08 19:00N 36°48' W 076°17'  
Track history (hours):
 
Tides and Currents Weather Stations Pressure Air Temp Water Temp Dewpoint Dewpoint Depression Visibility Wind Speed Wind Dir Waves Ship Positions

Southern Star

Owner: Southern Star, LLC, Chesapeake, VA. More information available from US FCC via Universal Licensing System and Coast Guard Vessel Documentation Center.

Last reported at 2017-Oct-18 18:50 UTC. Time now 2017-Oct-18 23:51 UTC.
Position N 36°57' W 076°20'.

Length 13 m; draft 3.5 m.

Type: Tug. MMSI: 367593210.

Date/timePositionNaut miles runAvg speedWind from/ knotsBaromVisibWave heightAir tempDewpointWater temp
2017-Oct-18 18:50N 36°57' W 076°20'3 7.5
2017-Oct-18 18:26N 36°54' W 076°20'3 6.9
2017-Oct-18 18:00N 36°51' W 076°19'3 6.7
2017-Oct-18 17:30N 36°48' W 076°17'0 0.1
2017-Oct-18 17:00N 36°48' W 076°17'0 0.1
2017-Oct-18 16:30N 36°48' W 076°17'0 0.8
2017-Oct-18 15:59N 36°48' W 076°17'0 0.0
2017-Oct-18 15:26N 36°48' W 076°17'0 0.0
2017-Oct-18 15:00N 36°48' W 076°17'0 0.0
2017-Oct-18 14:00N 36°48' W 076°17'0 0.0
2017-Oct-18 13:29N 36°48' W 076°17'2 3.2
2017-Oct-18 12:52N 36°50' W 076°17'1 1.5
2017-Oct-18 12:28N 36°50' W 076°16'0 0.3
2017-Oct-18 11:59N 36°50' W 076°16'1 3.0
2017-Oct-18 11:30N 36°49' W 076°17'1 1.1
2017-Oct-18 10:59N 36°48' W 076°17'0 0.0
2017-Oct-17 23:08N 36°48' W 076°17'0 0.1
2017-Oct-17 22:55N 36°48' W 076°17'0 0.0
2017-Oct-17 22:25N 36°48' W 076°17'0 0.9
2017-Oct-17 21:57N 36°48' W 076°17'0 0.2
2017-Oct-17 20:03N 36°48' W 076°17'0 0.0
2017-Oct-17 19:59N 36°48' W 076°17'0 0.0
2017-Oct-17 19:24N 36°48' W 076°17'0 0.0
2017-Oct-17 18:45N 36°48' W 076°17'0 0.0
2017-Oct-17 17:44N 36°48' W 076°17'0 0.0
2017-Oct-17 17:28N 36°48' W 076°17'0 0.0
2017-Oct-17 16:36N 36°48' W 076°17'0 0.0
2017-Oct-17 16:25N 36°48' W 076°17'2 3.1
2017-Oct-17 15:46N 36°50' W 076°17'0 0.5
2017-Oct-17 15:04N 36°50' W 076°17'2 0.8
2017-Oct-17 12:23N 36°52' W 076°19'2 1.8
2017-Oct-17 11:03N 36°50' W 076°16'2 4.8
2017-Oct-17 10:43N 36°49' W 076°17'1 1.5
2017-Oct-17 10:20N 36°48' W 076°17'  
2017-Oct-12 19:20N 36°48' W 076°17'1 3.1
2017-Oct-12 19:01N 36°49' W 076°18'4 7.5
2017-Oct-12 18:29N 36°52' W 076°21'0 1.0
2017-Oct-12 17:59N 36°53' W 076°20'1 2.8
2017-Oct-12 17:28N 36°51' W 076°19'2 4.7
2017-Oct-12 17:01N 36°50' W 076°17'0 0.2
2017-Oct-12 16:31N 36°50' W 076°17'0 0.1
2017-Oct-12 16:01N 36°50' W 076°17'0 0.1
2017-Oct-12 15:31N 36°50' W 076°17'0 0.6
2017-Oct-12 15:01N 36°50' W 076°17'3 5.5
2017-Oct-12 14:30N 36°52' W 076°20'1 1.5
2017-Oct-12 14:00N 36°52' W 076°19'3 6.0
2017-Oct-12 13:30N 36°49' W 076°18'1 2.3
2017-Oct-12 13:01N 36°48' W 076°18'0 0.9
2017-Oct-12 12:31N 36°48' W 076°17'0 0.0
2017-Oct-12 12:01N 36°48' W 076°17'0 0.0
2017-Oct-12 11:31N 36°48' W 076°17'0 0.0
2017-Oct-12 11:01N 36°48' W 076°17'0 0.0
2017-Oct-12 10:31N 36°48' W 076°17'0 0.0
2017-Oct-12 10:01N 36°48' W 076°17'0 0.0
2017-Oct-12 09:30N 36°48' W 076°17'2 3.3
2017-Oct-12 08:54N 36°50' W 076°17'1 1.6
2017-Oct-12 08:30N 36°50' W 076°16'0 0.6
2017-Oct-12 08:00N 36°50' W 076°16'3 5.0
2017-Oct-12 07:29N 36°52' W 076°19'18 4.7
2017-Oct-12 03:43N 36°55' W 075°57'3 6.9
2017-Oct-12 03:15N 36°52' W 075°56'3 0.1
2017-Oct-11 00:00N 36°54' W 075°58'3 6.8
2017-Oct-10 23:31N 36°57' W 076°01'3 6.8
2017-Oct-10 23:00N 36°58' W 076°05'13 5.4
2017-Oct-10 20:39N 36°55' W 076°20'1 6.2
2017-Oct-10 20:25N 36°54' W 076°20'3 5.6
2017-Oct-10 19:52N 36°51' W 076°18'2 5.0
2017-Oct-10 19:27N 36°50' W 076°16'0 0.0
2017-Oct-10 19:01N 36°50' W 076°16'0 0.8
2017-Oct-10 18:29N 36°50' W 076°17'2 3.9
2017-Oct-10 17:59N 36°48' W 076°17'0 0.0
2017-Oct-10 17:29N 36°48' W 076°17'0 0.0
2017-Oct-10 17:00N 36°48' W 076°17'0 0.0
2017-Oct-10 16:30N 36°48' W 076°17'0 0.0
2017-Oct-10 15:59N 36°48' W 076°17'0 0.0
2017-Oct-10 15:14N 36°48' W 076°17'0 0.0
2017-Oct-10 14:59N 36°48' W 076°17'8 3.3
2017-Oct-10 12:25N 36°57' W 076°20'2 4.1
2017-Oct-10 11:59N 36°55' W 076°20'5 7.3
2017-Oct-10 11:19N 36°51' W 076°18'2 2.0
2017-Oct-10 10:14N 36°50' W 076°15'0 0.1
2017-Oct-10 09:38N 36°50' W 076°15'0 0.5
2017-Oct-10 09:24N 36°50' W 076°15'2 3.7
2017-Oct-10 08:52N 36°51' W 076°17'2 5.5
2017-Oct-10 08:30N 36°48' W 076°17'0 0.0
2017-Oct-09 06:16N 36°48' W 076°17'0 0.0
2017-Oct-09 04:37N 36°48' W 076°17'0 0.0
2017-Oct-09 04:29N 36°48' W 076°17'0 0.0
2017-Oct-09 03:59N 36°48' W 076°17'0 0.0
2017-Oct-09 03:30N 36°48' W 076°17'0 0.0
2017-Oct-09 02:59N 36°48' W 076°17'0 0.0
2017-Oct-09 02:30N 36°48' W 076°17'0 0.0
2017-Oct-09 02:00N 36°48' W 076°17'0 0.0
2017-Oct-09 01:30N 36°48' W 076°17'0 0.0
2017-Oct-09 01:00N 36°48' W 076°17'0 0.0
2017-Oct-09 00:30N 36°48' W 076°17'0 0.0
2017-Oct-09 00:00N 36°48' W 076°17'0 0.0
2017-Oct-08 23:29N 36°48' W 076°17'0 0.0
2017-Oct-08 23:00N 36°48' W 076°17'0 0.0
2017-Oct-08 22:30N 36°48' W 076°17'0 0.0
2017-Oct-08 22:00N 36°48' W 076°17'0 0.0
2017-Oct-08 21:30N 36°48' W 076°17'0 0.0
2017-Oct-08 21:00N 36°48' W 076°17'0 0.0
2017-Oct-08 20:27N 36°48' W 076°17'0 0.0
2017-Oct-08 19:59N 36°48' W 076°17'0 0.0
2017-Oct-08 19:30N 36°48' W 076°17'0 0.0
2017-Oct-08 19:00N 36°48' W 076°17'  

Dump ship's entire track history